ePrivacy and GPDR Cookie Consent by Cookie Consent
EmailTwitter


Observations de surface / Canada / CYYZ (71624)

Régions: Québec | Canada | États-Unis | Europe | France | UK | Ailleurs
Station
Affichage
Infos & localisation pour CYYZ (71624) | Aide pour décoder les METARs

Observations prises le 2021-10-22 à 23H00 UTC à TORONTO A, ON (CYYZ)

Etat du ciel: partiellement nuageux.

Température: 8.0 Celsius

Point de rosée: 2.0 Celsius

Humidité relative: 66%

Vents: Variable à 4 km/h ou 2 noeuds.

Pression au niveau moyen de la mer: 101.66 kilopascals.

Calage altimétrique: 101.59 kilopascals ou 30.00 pouces de mercure.

Visibilité horizontale: 15.00 milles terrestres ou 24.00 kilomètres.

Hauteur du plafond: 1219 mètres ( 4000 pieds ).

Observation METAR:

CYYZ 222300Z VRB02KT 15SM SCT030 BKN040 08/02 A3000 RMK SC3SC4 SLP166=